Lefor, North Dakota
Current Conditions -  °F | °C
As of 5:56 PM on Sunday 23 Nov 2014 (Local Time) from KDIK Reporting Station
Overcast Overcast  
Wind Chill:   Ceiling: 1800
Heat Index: 23°   Visibility: 10mi
Dew Point: 15°   Wind: 25mph
Humidity: 72%   Direction: 320°NW
Pressure: 29.7"   Gusts: 33mph
Location:  46.69°N, 102.56°W
Report Text: KDIK 240056Z AUTO 32022G29KT 10SM OVC018 M05/M09 A2970 RMK AO2 PK WND 32034/0041 SNE2357 SLP087 P0000 T10501094
Loading
Personal Weather Stations






























Interactive Weather Map New forecast layout! Learn more

10-Day Weather Forecast

Advertisements
Track Severe Weather on mobile